Weather at St. André-Avellin (Old Aerodrome) [CLOSED]

Public forecast

Using degrees Celsius for public forecast. Weather courtesy of forecast.io.

Closest aviation weather report (METAR) to St. André-Avellin (Old Aerodrome)

Closest report is Ottawa / Gatineau Airport, 27.2 nm (50.4 km) SW.

2024/05/21 13:00 (retrieved 32 minutes ago)

CYND 211300Z 26008KT 12SM -RA FEW015 SCT060 BKN110 OVC250 18/16 A2994 RMK CU1SC3AC4CI1 CU TR SLP140 DENSITY ALT 700FT

Closest aviation forecast (TAF) to St. André-Avellin (Old Aerodrome)

Closest forecast is Ottawa / Gatineau Airport, 27.2 nm (50.4 km) SW.

2024/05/21 13:45 (retrieved 0 seconds ago)

TAF TAF CYND 211242Z 2113/2201 28005KT P6SM OVC030 TEMPO 2113/2116 5SM -SHRA BR OVC020 FM212000 20005KT P6SM BKN030 BKN140 TEMPO 2120/2123 5SM SHRA BKN020 PROB30 2121/2123 VRB15G25KT 2SM +TSRA BR BKN020 OVC040CB FM212300 24012KT P6SM BKN030 TEMPO 2123/2201 5SM -SHRA BR OVC020 PROB30 2123/2201 2SM TSRA BR BKN010 OVC030CB RMK NXT FCST BY 211800Z